createdAt,value
2023-03-14T00:02:55.454Z,22.61
2023-03-14T00:06:55.421Z,22.61
2023-03-14T00:10:55.622Z,22.61
2023-03-14T00:14:55.845Z,22.61
2023-03-14T00:18:56.033Z,22.61
2023-03-14T00:22:56.207Z,22.60
2023-03-14T00:26:56.392Z,22.60
2023-03-14T00:30:56.661Z,22.60
2023-03-14T00:34:56.764Z,22.60
2023-03-14T00:38:57.114Z,22.59
2023-03-14T00:42:57.204Z,22.60
2023-03-14T00:46:57.432Z,22.59
2023-03-14T00:50:57.566Z,22.59
2023-03-14T00:54:57.745Z,22.59
2023-03-14T00:58:57.939Z,22.59
2023-03-14T01:02:58.256Z,22.60
2023-03-14T01:06:58.337Z,22.59
2023-03-14T01:10:58.471Z,22.58
2023-03-14T01:14:58.653Z,22.58
2023-03-14T01:18:58.834Z,22.57
2023-03-14T01:22:59.063Z,22.57
2023-03-14T01:26:59.215Z,22.57
2023-03-14T01:30:59.417Z,22.58
2023-03-14T01:34:59.632Z,22.57
2023-03-14T01:38:59.797Z,22.56
2023-03-14T01:43:00.215Z,22.56
2023-03-14T01:47:00.247Z,22.56
2023-03-14T01:51:00.418Z,22.56
2023-03-14T01:55:00.655Z,22.55
2023-03-14T01:59:00.901Z,22.55
2023-03-14T02:03:01.075Z,22.55
2023-03-14T02:07:01.288Z,22.55
2023-03-14T02:11:01.478Z,22.53
2023-03-14T02:15:01.454Z,22.53
2023-03-14T02:19:01.387Z,22.53
2023-03-14T02:23:01.324Z,22.52
2023-03-14T02:27:01.324Z,22.51
2023-03-14T02:31:01.283Z,22.51
2023-03-14T02:35:01.264Z,22.51
2023-03-14T02:39:01.190Z,22.50
2023-03-14T02:43:01.167Z,22.50
2023-03-14T02:47:01.145Z,22.49
2023-03-14T02:51:01.148Z,22.49
2023-03-14T02:55:01.049Z,22.49
2023-03-14T02:59:01.043Z,22.49
2023-03-14T03:03:01.014Z,22.48
2023-03-14T03:07:00.957Z,22.49
2023-03-14T03:11:00.910Z,22.48
2023-03-14T03:15:00.871Z,22.47
2023-03-14T03:19:00.842Z,22.48
2023-03-14T03:23:00.800Z,22.47
2023-03-14T03:27:00.751Z,22.47
2023-03-14T03:31:00.831Z,22.46
2023-03-14T03:35:00.693Z,22.46
2023-03-14T03:39:00.673Z,22.46
2023-03-14T03:43:00.789Z,22.45
2023-03-14T03:47:01.057Z,22.45
2023-03-14T03:51:01.169Z,22.44
2023-03-14T03:55:01.313Z,22.44
2023-03-14T03:59:01.488Z,22.43
2023-03-14T04:03:01.584Z,22.40
2023-03-14T04:07:01.729Z,22.39
2023-03-14T04:11:01.875Z,22.39
2023-03-14T04:15:02.086Z,22.39
2023-03-14T04:19:02.240Z,22.39
2023-03-14T04:23:02.414Z,22.38
2023-03-14T04:27:02.522Z,22.37
2023-03-14T04:31:02.648Z,22.36
2023-03-14T04:35:02.778Z,22.35
2023-03-14T04:39:02.951Z,22.35
2023-03-14T04:43:03.022Z,22.35
2023-03-14T04:47:03.278Z,22.36
2023-03-14T04:51:03.254Z,22.37
2023-03-14T04:55:03.362Z,22.37
2023-03-14T04:59:03.492Z,22.37
2023-03-14T05:03:03.640Z,22.39
2023-03-14T05:07:03.662Z,22.40
2023-03-14T05:11:03.766Z,22.40
2023-03-14T05:15:03.887Z,22.40
2023-03-14T05:19:04.055Z,22.41
2023-03-14T05:23:04.217Z,22.41
2023-03-14T05:27:04.425Z,22.42
2023-03-14T05:31:04.594Z,22.42
2023-03-14T05:35:04.743Z,22.42
2023-03-14T05:39:04.924Z,22.42
2023-03-14T05:43:05.187Z,22.42
2023-03-14T05:47:05.265Z,22.42
2023-03-14T05:51:05.386Z,22.41
2023-03-14T05:55:05.591Z,22.42
2023-03-14T05:59:05.719Z,22.41
2023-03-14T06:03:07.600Z,22.41
2023-03-14T06:07:06.102Z,22.40
2023-03-14T06:11:06.266Z,22.40
2023-03-14T06:15:06.395Z,22.39
2023-03-14T06:19:06.603Z,22.40
2023-03-14T06:23:06.790Z,22.40
2023-03-14T06:27:06.906Z,22.39
2023-03-14T06:31:07.186Z,22.39
2023-03-14T06:35:07.148Z,22.36
2023-03-14T06:39:07.506Z,21.69
2023-03-14T06:43:07.362Z,21.62
2023-03-14T06:47:07.497Z,21.75
2023-03-14T06:51:07.564Z,21.99
2023-03-14T06:55:07.180Z,22.19
2023-03-14T06:59:07.525Z,22.37
2023-03-14T07:03:07.494Z,22.51
2023-03-14T07:07:07.528Z,22.64
2023-03-14T07:11:07.042Z,22.76
2023-03-14T07:15:17.464Z,22.88
2023-03-14T07:19:07.960Z,22.98
2023-03-14T07:23:06.933Z,23.09
2023-03-14T07:27:07.742Z,23.17
2023-03-14T07:31:06.979Z,23.25
2023-03-14T07:35:07.080Z,23.31
2023-03-14T07:39:06.835Z,23.36
2023-03-14T07:43:06.790Z,23.43
2023-03-14T07:47:06.792Z,23.48
2023-03-14T07:51:07.040Z,23.50
2023-03-14T07:55:07.039Z,23.52
2023-03-14T07:59:06.651Z,23.56
2023-03-14T08:03:06.663Z,23.30
2023-03-14T08:07:06.561Z,23.14
2023-03-14T08:11:06.544Z,23.19
2023-03-14T08:15:06.488Z,23.32
2023-03-14T08:19:06.428Z,23.43
2023-03-14T08:23:06.402Z,23.54
2023-03-14T08:27:08.011Z,23.63
2023-03-14T08:31:06.405Z,23.70
2023-03-14T08:35:06.315Z,23.75
2023-03-14T08:39:06.353Z,23.81
2023-03-14T08:43:06.247Z,23.85
2023-03-14T08:47:06.579Z,23.90
2023-03-14T08:51:06.175Z,23.95
2023-03-14T08:55:06.546Z,24.00
2023-03-14T08:59:06.085Z,24.04
2023-03-14T09:03:06.162Z,24.09
2023-03-14T09:07:06.133Z,24.12
2023-03-14T09:11:06.276Z,24.14
2023-03-14T09:15:06.595Z,24.15
2023-03-14T09:19:06.629Z,24.19
2023-03-14T09:23:06.851Z,24.21
2023-03-14T09:27:07.036Z,24.24
2023-03-14T09:31:07.113Z,24.26
2023-03-14T09:35:07.253Z,24.28
2023-03-14T09:39:07.590Z,24.29
2023-03-14T09:43:07.604Z,24.34
2023-03-14T09:47:08.098Z,24.37
2023-03-14T09:51:08.068Z,24.40
2023-03-14T09:55:07.851Z,23.95
2023-03-14T09:59:07.794Z,23.89
2023-03-14T10:03:08.094Z,24.00
2023-03-14T10:07:07.716Z,24.11
2023-03-14T10:11:07.644Z,24.21
2023-03-14T10:15:07.654Z,24.32
2023-03-14T10:19:07.625Z,24.41
2023-03-14T10:23:07.544Z,24.45
2023-03-14T10:27:07.524Z,24.46
2023-03-14T10:31:07.538Z,24.50
2023-03-14T10:35:07.629Z,24.55
2023-03-14T10:39:07.395Z,24.62
2023-03-14T10:43:07.629Z,24.63
2023-03-14T10:47:07.351Z,24.56
2023-03-14T10:51:07.596Z,24.22
2023-03-14T10:55:07.616Z,23.91
2023-03-14T10:59:08.147Z,23.75
2023-03-14T11:03:07.855Z,23.68
2023-03-14T11:07:07.900Z,23.68
2023-03-14T11:11:08.025Z,23.64
2023-03-14T11:15:08.171Z,23.64
2023-03-14T11:19:08.219Z,23.70
2023-03-14T11:23:08.215Z,23.82
2023-03-14T11:27:08.431Z,23.95
2023-03-14T11:31:08.369Z,24.05
2023-03-14T11:35:08.830Z,24.11
2023-03-14T11:39:08.321Z,24.18
2023-03-14T11:43:08.951Z,24.31
2023-03-14T11:47:09.144Z,24.42
2023-03-14T11:51:08.209Z,24.51
2023-03-14T11:55:08.152Z,24.58
2023-03-14T11:59:08.100Z,24.65
2023-03-14T12:03:08.076Z,24.70
2023-03-14T12:07:08.051Z,24.66
2023-03-14T12:11:07.994Z,24.24
2023-03-14T12:15:07.979Z,24.27
2023-03-14T12:19:08.143Z,24.38
2023-03-14T12:23:08.281Z,24.53
2023-03-14T12:27:08.403Z,24.60
2023-03-14T12:31:08.635Z,24.64
2023-03-14T12:35:08.694Z,24.62
2023-03-14T12:39:09.163Z,24.61
2023-03-14T12:43:08.848Z,24.61
2023-03-14T12:47:08.992Z,24.61
2023-03-14T12:51:09.166Z,24.65
2023-03-14T12:55:09.748Z,24.67
2023-03-14T12:59:09.318Z,24.68
2023-03-14T13:03:09.465Z,24.63
2023-03-14T13:07:09.678Z,24.62
2023-03-14T13:11:09.692Z,24.58
2023-03-14T13:15:11.282Z,24.53
2023-03-14T13:19:10.008Z,24.48
2023-03-14T13:23:10.141Z,24.45
2023-03-14T13:27:10.657Z,24.40
2023-03-14T13:31:10.765Z,24.37
2023-03-14T13:35:10.690Z,24.33
2023-03-14T13:39:10.852Z,24.31
2023-03-14T13:43:11.230Z,24.28
2023-03-14T13:47:11.284Z,24.25
2023-03-14T13:51:11.506Z,24.22
2023-03-14T13:55:11.484Z,24.18
2023-03-14T13:59:11.403Z,24.14
2023-03-14T14:03:11.683Z,24.13
2023-03-14T14:07:11.357Z,24.11
2023-03-14T14:11:11.667Z,24.09
2023-03-14T14:15:11.269Z,24.07
2023-03-14T14:19:11.673Z,24.04
2023-03-14T14:23:11.210Z,24.04
2023-03-14T14:27:11.246Z,24.02
2023-03-14T14:31:11.228Z,23.99
2023-03-14T14:35:11.384Z,23.97
2023-03-14T14:39:11.571Z,23.96
2023-03-14T14:43:11.724Z,23.94
2023-03-14T14:47:11.761Z,23.93
2023-03-14T14:51:11.835Z,23.92
2023-03-14T14:55:12.196Z,23.92
2023-03-14T14:59:12.015Z,23.90
2023-03-14T15:03:12.106Z,23.90
2023-03-14T15:07:12.027Z,23.88
2023-03-14T15:11:12.046Z,23.88
2023-03-14T15:15:12.302Z,23.89
2023-03-14T15:19:23.463Z,23.91
2023-03-14T15:23:12.899Z,23.91
2023-03-14T15:27:11.853Z,23.90
2023-03-14T15:31:11.876Z,23.92
2023-03-14T15:35:11.837Z,23.93
2023-03-14T15:39:11.755Z,23.94
2023-03-14T15:43:11.742Z,23.93
2023-03-14T15:47:11.700Z,23.92
2023-03-14T15:51:11.695Z,23.89
2023-03-14T15:55:11.585Z,23.87
2023-03-14T15:59:11.563Z,23.87
2023-03-14T16:03:11.531Z,23.85
2023-03-14T16:07:11.523Z,23.84
2023-03-14T16:11:11.452Z,23.83
2023-03-14T16:15:11.480Z,23.81
2023-03-14T16:19:11.378Z,23.81
2023-03-14T16:23:11.345Z,23.79
2023-03-14T16:27:11.331Z,23.79
2023-03-14T16:31:11.276Z,23.79
2023-03-14T16:35:11.241Z,23.78
2023-03-14T16:39:11.219Z,23.77
2023-03-14T16:43:16.066Z,23.76
2023-03-14T16:47:12.209Z,23.76
2023-03-14T16:51:11.090Z,23.74
2023-03-14T16:55:11.017Z,23.73
2023-03-14T16:59:11.011Z,23.72
2023-03-14T17:03:10.974Z,23.71
2023-03-14T17:07:10.949Z,23.70
2023-03-14T17:11:10.907Z,23.69
2023-03-14T17:15:10.925Z,23.68
2023-03-14T17:19:10.951Z,23.68
2023-03-14T17:23:10.805Z,23.67
2023-03-14T17:27:10.750Z,23.67
2023-03-14T17:31:10.887Z,23.66
2023-03-14T17:35:10.709Z,23.66
2023-03-14T17:39:10.692Z,23.65
2023-03-14T17:43:11.233Z,23.64
2023-03-14T17:47:10.576Z,23.63
2023-03-14T17:51:10.574Z,23.63
2023-03-14T17:55:10.530Z,23.62
2023-03-14T17:59:10.577Z,23.61
2023-03-14T18:03:10.688Z,23.61
2023-03-14T18:07:10.756Z,23.60
2023-03-14T18:11:10.841Z,23.59
2023-03-14T18:15:10.938Z,23.58
2023-03-14T18:19:10.940Z,23.58
2023-03-14T18:23:11.017Z,23.59
2023-03-14T18:27:11.121Z,23.56
2023-03-14T18:31:11.437Z,23.56
2023-03-14T18:35:11.299Z,23.55
2023-03-14T18:39:11.335Z,23.55
2023-03-14T18:43:11.443Z,23.54
2023-03-14T18:47:11.595Z,23.53
2023-03-14T18:51:11.569Z,23.53
2023-03-14T18:55:11.646Z,23.53
2023-03-14T18:59:11.740Z,23.51
2023-03-14T19:03:11.832Z,23.51
2023-03-14T19:07:11.882Z,23.50
2023-03-14T19:11:11.941Z,23.49
2023-03-14T19:15:12.070Z,23.49
2023-03-14T19:19:12.076Z,23.48
2023-03-14T19:23:12.149Z,23.48
2023-03-14T19:27:12.281Z,23.48
2023-03-14T19:31:12.435Z,23.48
2023-03-14T19:35:12.463Z,23.46
2023-03-14T19:39:12.558Z,23.47
2023-03-14T19:43:12.663Z,23.46
2023-03-14T19:47:12.688Z,23.45
2023-03-14T19:51:12.814Z,23.46
2023-03-14T19:55:12.894Z,23.45
2023-03-14T19:59:12.987Z,23.45
2023-03-14T20:03:13.134Z,23.44
2023-03-14T20:07:13.221Z,23.43
2023-03-14T20:11:13.390Z,23.43
2023-03-14T20:15:13.454Z,23.42
2023-03-14T20:19:13.620Z,23.42
2023-03-14T20:23:13.808Z,23.42
2023-03-14T20:27:13.863Z,23.42
2023-03-14T20:31:13.998Z,23.41
2023-03-14T20:35:14.143Z,23.40
2023-03-14T20:39:14.317Z,23.40
2023-03-14T20:43:14.376Z,23.40
2023-03-14T20:47:14.498Z,23.40
2023-03-14T20:51:14.660Z,23.39
2023-03-14T20:55:14.801Z,23.38
2023-03-14T20:59:14.945Z,23.38
2023-03-14T21:03:15.352Z,23.38
2023-03-14T21:07:15.213Z,23.37
2023-03-14T21:11:15.426Z,23.37
2023-03-14T21:15:15.439Z,23.37
2023-03-14T21:19:15.583Z,23.35
2023-03-14T21:23:17.899Z,23.36
2023-03-14T21:27:15.729Z,23.35
2023-03-14T21:31:15.943Z,23.34
2023-03-14T21:35:15.636Z,23.35
2023-03-14T21:39:15.621Z,23.34
2023-03-14T21:43:15.598Z,23.35
2023-03-14T21:47:15.557Z,23.34
2023-03-14T21:51:15.476Z,23.34
2023-03-14T21:55:15.444Z,23.35
2023-03-14T21:59:15.430Z,23.33
2023-03-14T22:03:15.426Z,23.33
2023-03-14T22:07:17.339Z,23.33
2023-03-14T22:11:15.309Z,23.33
2023-03-14T22:15:15.279Z,23.33
2023-03-14T22:19:15.200Z,23.33
2023-03-14T22:23:15.181Z,23.32
2023-03-14T22:27:15.127Z,23.32
2023-03-14T22:31:15.187Z,23.31
2023-03-14T22:35:15.091Z,23.32
2023-03-14T22:39:15.040Z,23.31
2023-03-14T22:43:14.960Z,23.31
2023-03-14T22:47:14.984Z,23.31
2023-03-14T22:51:14.908Z,23.30
2023-03-14T22:55:14.906Z,23.30
2023-03-14T22:59:15.204Z,23.29
2023-03-14T23:03:14.972Z,23.29
2023-03-14T23:07:15.106Z,23.31
2023-03-14T23:11:15.224Z,23.31
2023-03-14T23:15:15.365Z,23.32
2023-03-14T23:19:15.521Z,23.31
2023-03-14T23:23:15.727Z,23.31
2023-03-14T23:27:15.852Z,23.30
2023-03-14T23:31:16.147Z,23.31
2023-03-14T23:35:16.199Z,23.30
2023-03-14T23:39:16.352Z,23.29
2023-03-14T23:43:16.545Z,23.27
2023-03-14T23:47:16.698Z,23.27
2023-03-14T23:51:16.899Z,23.27
2023-03-14T23:55:17.115Z,23.28
2023-03-14T23:59:17.259Z,23.26
